sensor_id;sensor_type;location;lat;lon;timestamp;temperature;humidity
18126;DHT22;53956;52.442;13.284;2022-12-18T00:00:06;-3276.40;97.10
18126;DHT22;53956;52.442;13.284;2022-12-18T00:02:39;-3276.40;96.80
18126;DHT22;53956;52.442;13.284;2022-12-18T00:05:06;-3276.60;96.40
18126;DHT22;53956;52.442;13.284;2022-12-18T00:07:35;-3276.10;97.10
18126;DHT22;53956;52.442;13.284;2022-12-18T00:10:03;-3276.20;97.20
18126;DHT22;53956;52.442;13.284;2022-12-18T00:12:29;-3276.00;97.30
18126;DHT22;53956;52.442;13.284;2022-12-18T00:14:56;-3275.70;97.70
18126;DHT22;53956;52.442;13.284;2022-12-18T00:17:24;-3275.80;97.70
18126;DHT22;53956;52.442;13.284;2022-12-18T00:19:51;-3275.90;97.40
18126;DHT22;53956;52.442;13.284;2022-12-18T00:22:17;-3276.40;97.40
18126;DHT22;53956;52.442;13.284;2022-12-18T00:24:44;-3275.80;97.10
18126;DHT22;53956;52.442;13.284;2022-12-18T00:27:11;0.20;0.20
18126;DHT22;53956;52.442;13.284;2022-12-18T00:29:37;-3275.80;98.40
18126;DHT22;53956;52.442;13.284;2022-12-18T00:32:07;-3276.20;97.50
18126;DHT22;53956;52.442;13.284;2022-12-18T00:34:35;-3276.00;97.50
18126;DHT22;53956;52.442;13.284;2022-12-18T00:37:02;-3276.00;97.40
18126;DHT22;53956;52.442;13.284;2022-12-18T00:39:28;-3275.80;98.00
18126;DHT22;53956;52.442;13.284;2022-12-18T00:41:55;-3276.10;97.20
18126;DHT22;53956;52.442;13.284;2022-12-18T00:44:39;-3276.40;97.00
18126;DHT22;53956;52.442;13.284;2022-12-18T00:47:06;-3276.30;96.50
18126;DHT22;53956;52.442;13.284;2022-12-18T00:49:34;-3276.10;97.10
18126;DHT22;53956;52.442;13.284;2022-12-18T00:52:01;-3276.10;97.10
18126;DHT22;53956;52.442;13.284;2022-12-18T00:54:27;-3276.10;96.40
18126;DHT22;53956;52.442;13.284;2022-12-18T00:56:54;-3275.60;98.40
18126;DHT22;53956;52.442;13.284;2022-12-18T00:59:21;-3275.60;98.00
18126;DHT22;53956;52.442;13.284;2022-12-18T01:01:50;-3275.60;98.10
18126;DHT22;53956;52.442;13.284;2022-12-18T01:04:16;0.20;0.20
18126;DHT22;53956;52.442;13.284;2022-12-18T01:06:46;-3275.70;97.80
18126;DHT22;53956;52.442;13.284;2022-12-18T01:09:13;-3276.10;97.40
18126;DHT22;53956;52.442;13.284;2022-12-18T01:11:39;-3276.30;97.10
18126;DHT22;53956;52.442;13.284;2022-12-18T01:14:06;-3276.40;95.90
18126;DHT22;53956;52.442;13.284;2022-12-18T01:16:32;-3276.30;95.50
18126;DHT22;53956;52.442;13.284;2022-12-18T01:18:59;-3276.40;96.20
18126;DHT22;53956;52.442;13.284;2022-12-18T01:21:26;-3276.30;95.70
18126;DHT22;53956;52.442;13.284;2022-12-18T01:23:55;-3276.10;96.20
18126;DHT22;53956;52.442;13.284;2022-12-18T01:26:23;0.20;0.20
18126;DHT22;53956;52.442;13.284;2022-12-18T01:28:50;0.20;0.20
18126;DHT22;53956;52.442;13.284;2022-12-18T01:31:19;0.20;0.20
18126;DHT22;53956;52.442;13.284;2022-12-18T01:33:46;0.20;0.20
18126;DHT22;53956;52.442;13.284;2022-12-18T01:36:18;0.20;0.20
18126;DHT22;53956;52.442;13.284;2022-12-18T01:38:46;0.20;0.20
18126;DHT22;53956;52.442;13.284;2022-12-18T01:41:15;0.20;0.20
18126;DHT22;53956;52.442;13.284;2022-12-18T01:43:46;0.20;0.20
18126;DHT22;53956;52.442;13.284;2022-12-18T01:46:14;0.20;0.20
18126;DHT22;53956;52.442;13.284;2022-12-18T01:48:41;0.20;0.20
18126;DHT22;53956;52.442;13.284;2022-12-18T01:51:10;0.20;0.20
18126;DHT22;53956;52.442;13.284;2022-12-18T01:53:39;0.20;0.20
18126;DHT22;53956;52.442;13.284;2022-12-18T01:56:07;0.20;0.20
18126;DHT22;53956;52.442;13.284;2022-12-18T01:58:41;0.20;0.20
18126;DHT22;53956;52.442;13.284;2022-12-18T02:01:09;0.20;0.20
18126;DHT22;53956;52.442;13.284;2022-12-18T02:03:36;0.20;0.20
18126;DHT22;53956;52.442;13.284;2022-12-18T02:06:10;0.20;0.20
18126;DHT22;53956;52.442;13.284;2022-12-18T02:08:47;0.20;0.20
18126;DHT22;53956;52.442;13.284;2022-12-18T02:11:20;0.20;0.20
18126;DHT22;53956;52.442;13.284;2022-12-18T02:13:57;0.20;0.20
18126;DHT22;53956;52.442;13.284;2022-12-18T02:16:33;0.20;0.20
18126;DHT22;53956;52.442;13.284;2022-12-18T02:19:08;0.20;0.20
18126;DHT22;53956;52.442;13.284;2022-12-18T02:21:49;0.20;0.20
18126;DHT22;53956;52.442;13.284;2022-12-18T02:24:28;0.20;0.20
18126;DHT22;53956;52.442;13.284;2022-12-18T02:26:59;0.20;0.20
18126;DHT22;53956;52.442;13.284;2022-12-18T02:29:33;0.20;0.20
18126;DHT22;53956;52.442;13.284;2022-12-18T02:32:02;0.20;0.20
18126;DHT22;53956;52.442;13.284;2022-12-18T02:34:32;0.20;0.20
18126;DHT22;53956;52.442;13.284;2022-12-18T02:37:02;0.20;0.20
18126;DHT22;53956;52.442;13.284;2022-12-18T02:39:32;0.20;0.20
18126;DHT22;53956;52.442;13.284;2022-12-18T02:42:04;0.20;0.20
18126;DHT22;53956;52.442;13.284;2022-12-18T02:44:33;0.20;0.20
18126;DHT22;53956;52.442;13.284;2022-12-18T02:47:00;0.20;0.20
18126;DHT22;53956;52.442;13.284;2022-12-18T02:49:35;0.20;0.20
18126;DHT22;53956;52.442;13.284;2022-12-18T02:52:11;0.20;0.20
18126;DHT22;53956;52.442;13.284;2022-12-18T02:54:47;0.20;0.20
18126;DHT22;53956;52.442;13.284;2022-12-18T02:57:21;0.20;0.20
18126;DHT22;53956;52.442;13.284;2022-12-18T02:59:57;0.20;0.20
18126;DHT22;53956;52.442;13.284;2022-12-18T03:02:31;0.20;0.20
18126;DHT22;53956;52.442;13.284;2022-12-18T03:05:05;0.20;0.20
18126;DHT22;53956;52.442;13.284;2022-12-18T03:07:37;0.20;0.20
18126;DHT22;53956;52.442;13.284;2022-12-18T03:10:13;0.20;0.20
18126;DHT22;53956;52.442;13.284;2022-12-18T03:12:44;0.20;0.20
18126;DHT22;53956;52.442;13.284;2022-12-18T03:15:17;0.20;0.20
18126;DHT22;53956;52.442;13.284;2022-12-18T03:18:05;0.20;0.20
18126;DHT22;53956;52.442;13.284;2022-12-18T03:20:34;0.20;0.20
18126;DHT22;53956;52.442;13.284;2022-12-18T03:23:06;0.20;0.20
18126;DHT22;53956;52.442;13.284;2022-12-18T03:25:37;0.20;0.20
18126;DHT22;53956;52.442;13.284;2022-12-18T03:28:09;0.20;0.20
18126;DHT22;53956;52.442;13.284;2022-12-18T03:30:40;0.20;0.20
18126;DHT22;53956;52.442;13.284;2022-12-18T03:33:10;0.20;0.20
18126;DHT22;53956;52.442;13.284;2022-12-18T03:35:43;0.20;0.20
18126;DHT22;53956;52.442;13.284;2022-12-18T03:38:12;0.20;0.20
18126;DHT22;53956;52.442;13.284;2022-12-18T03:40:56;0.20;0.20
18126;DHT22;53956;52.442;13.284;2022-12-18T03:43:36;0.20;0.20
18126;DHT22;53956;52.442;13.284;2022-12-18T03:46:11;0.20;0.20
18126;DHT22;53956;52.442;13.284;2022-12-18T03:48:47;0.20;0.20
18126;DHT22;53956;52.442;13.284;2022-12-18T03:51:21;0.20;0.20
18126;DHT22;53956;52.442;13.284;2022-12-18T03:53:54;0.20;0.20
18126;DHT22;53956;52.442;13.284;2022-12-18T03:56:31;0.20;0.20
18126;DHT22;53956;52.442;13.284;2022-12-18T03:59:03;0.20;0.20
18126;DHT22;53956;52.442;13.284;2022-12-18T04:01:34;0.20;0.20
18126;DHT22;53956;52.442;13.284;2022-12-18T04:04:02;0.20;0.20
18126;DHT22;53956;52.442;13.284;2022-12-18T04:06:33;0.20;0.20
18126;DHT22;53956;52.442;13.284;2022-12-18T04:09:01;0.20;0.20
18126;DHT22;53956;52.442;13.284;2022-12-18T04:11:29;0.20;0.20
18126;DHT22;53956;52.442;13.284;2022-12-18T04:13:57;0.20;0.20
18126;DHT22;53956;52.442;13.284;2022-12-18T04:16:25;0.20;0.20
18126;DHT22;53956;52.442;13.284;2022-12-18T04:18:55;0.20;0.20
18126;DHT22;53956;52.442;13.284;2022-12-18T04:21:26;0.20;0.20
18126;DHT22;53956;52.442;13.284;2022-12-18T04:23:53;0.20;0.20
18126;DHT22;53956;52.442;13.284;2022-12-18T04:26:22;0.20;0.20
18126;DHT22;53956;52.442;13.284;2022-12-18T04:28:59;0.20;0.20
18126;DHT22;53956;52.442;13.284;2022-12-18T04:31:28;0.20;0.20
18126;DHT22;53956;52.442;13.284;2022-12-18T04:33:56;0.20;0.20
18126;DHT22;53956;52.442;13.284;2022-12-18T04:36:23;0.20;0.20
18126;DHT22;53956;52.442;13.284;2022-12-18T04:38:49;0.20;0.20
18126;DHT22;53956;52.442;13.284;2022-12-18T04:41:16;0.20;0.20
18126;DHT22;53956;52.442;13.284;2022-12-18T04:43:46;0.20;0.20
18126;DHT22;53956;52.442;13.284;2022-12-18T04:46:13;0.20;0.20
18126;DHT22;53956;52.442;13.284;2022-12-18T04:48:41;0.20;0.20
18126;DHT22;53956;52.442;13.284;2022-12-18T04:51:08;0.20;0.20
18126;DHT22;53956;52.442;13.284;2022-12-18T04:53:34;0.20;0.20
18126;DHT22;53956;52.442;13.284;2022-12-18T04:56:06;0.20;0.20
18126;DHT22;53956;52.442;13.284;2022-12-18T04:58:33;0.20;0.20
18126;DHT22;53956;52.442;13.284;2022-12-18T05:01:01;0.20;0.20
18126;DHT22;53956;52.442;13.284;2022-12-18T05:03:28;0.20;0.20
18126;DHT22;53956;52.442;13.284;2022-12-18T05:05:57;0.20;0.20
18126;DHT22;53956;52.442;13.284;2022-12-18T05:08:23;0.20;0.20
18126;DHT22;53956;52.442;13.284;2022-12-18T05:10:58;0.20;0.20
18126;DHT22;53956;52.442;13.284;2022-12-18T05:13:24;0.20;0.20
18126;DHT22;53956;52.442;13.284;2022-12-18T05:15:51;0.20;0.20
18126;DHT22;53956;52.442;13.284;2022-12-18T05:18:18;0.20;0.20
18126;DHT22;53956;52.442;13.284;2022-12-18T05:20:45;0.20;0.20
18126;DHT22;53956;52.442;13.284;2022-12-18T05:23:13;0.20;0.20
18126;DHT22;53956;52.442;13.284;2022-12-18T05:25:40;0.20;0.20
18126;DHT22;53956;52.442;13.284;2022-12-18T05:28:06;0.20;0.20
18126;DHT22;53956;52.442;13.284;2022-12-18T05:30:34;0.20;0.20
18126;DHT22;53956;52.442;13.284;2022-12-18T05:33:02;0.20;0.20
18126;DHT22;53956;52.442;13.284;2022-12-18T05:35:28;0.20;0.20
18126;DHT22;53956;52.442;13.284;2022-12-18T05:37:55;0.20;0.20
18126;DHT22;53956;52.442;13.284;2022-12-18T05:40:23;0.20;0.20
18126;DHT22;53956;52.442;13.284;2022-12-18T05:42:49;0.20;0.20
18126;DHT22;53956;52.442;13.284;2022-12-18T05:45:17;0.20;0.20
18126;DHT22;53956;52.442;13.284;2022-12-18T05:47:43;0.20;0.20
18126;DHT22;53956;52.442;13.284;2022-12-18T05:50:10;0.20;0.20
18126;DHT22;53956;52.442;13.284;2022-12-18T05:52:37;0.20;0.20
18126;DHT22;53956;52.442;13.284;2022-12-18T05:55:04;0.20;0.20
18126;DHT22;53956;52.442;13.284;2022-12-18T05:57:32;0.20;0.20
18126;DHT22;53956;52.442;13.284;2022-12-18T05:59:58;0.20;0.20
18126;DHT22;53956;52.442;13.284;2022-12-18T06:02:25;0.20;0.20
18126;DHT22;53956;52.442;13.284;2022-12-18T06:04:52;0.20;0.20
18126;DHT22;53956;52.442;13.284;2022-12-18T06:07:18;0.20;0.20
18126;DHT22;53956;52.442;13.284;2022-12-18T06:09:45;0.20;0.20
18126;DHT22;53956;52.442;13.284;2022-12-18T06:12:12;0.20;0.20
18126;DHT22;53956;52.442;13.284;2022-12-18T06:14:40;0.20;0.20
18126;DHT22;53956;52.442;13.284;2022-12-18T06:17:06;0.20;0.20
18126;DHT22;53956;52.442;13.284;2022-12-18T06:19:33;0.20;0.20
18126;DHT22;53956;52.442;13.284;2022-12-18T06:22:00;0.20;0.20
18126;DHT22;53956;52.442;13.284;2022-12-18T06:24:26;0.20;0.20
18126;DHT22;53956;52.442;13.284;2022-12-18T06:26:53;0.20;0.20
18126;DHT22;53956;52.442;13.284;2022-12-18T06:29:20;0.20;0.20
18126;DHT22;53956;52.442;13.284;2022-12-18T06:31:48;0.20;0.20
18126;DHT22;53956;52.442;13.284;2022-12-18T06:34:14;0.20;0.20
18126;DHT22;53956;52.442;13.284;2022-12-18T06:36:41;0.20;0.20
18126;DHT22;53956;52.442;13.284;2022-12-18T06:39:07;-3276.70;88.70
18126;DHT22;53956;52.442;13.284;2022-12-18T06:41:34;0.20;0.20
18126;DHT22;53956;52.442;13.284;2022-12-18T06:44:01;0.20;0.20
18126;DHT22;53956;52.442;13.284;2022-12-18T06:46:27;0.20;0.20
18126;DHT22;53956;52.442;13.284;2022-12-18T06:48:55;0.20;0.20
18126;DHT22;53956;52.442;13.284;2022-12-18T06:51:23;0.20;0.20
18126;DHT22;53956;52.442;13.284;2022-12-18T06:53:50;0.20;0.20
18126;DHT22;53956;52.442;13.284;2022-12-18T06:56:16;0.20;0.20
18126;DHT22;53956;52.442;13.284;2022-12-18T06:58:43;0.20;0.20
18126;DHT22;53956;52.442;13.284;2022-12-18T07:01:11;0.20;0.20
18126;DHT22;53956;52.442;13.284;2022-12-18T07:03:38;0.20;0.20
18126;DHT22;53956;52.442;13.284;2022-12-18T07:06:11;0.20;0.20
18126;DHT22;53956;52.442;13.284;2022-12-18T07:08:39;0.20;0.20
18126;DHT22;53956;52.442;13.284;2022-12-18T07:11:06;0.20;0.20
18126;DHT22;53956;52.442;13.284;2022-12-18T07:13:32;0.20;0.20
18126;DHT22;53956;52.442;13.284;2022-12-18T07:16:07;0.20;0.20
18126;DHT22;53956;52.442;13.284;2022-12-18T07:18:34;0.20;0.20
18126;DHT22;53956;52.442;13.284;2022-12-18T07:21:03;0.20;0.20
18126;DHT22;53956;52.442;13.284;2022-12-18T07:23:33;0.20;0.20
18126;DHT22;53956;52.442;13.284;2022-12-18T07:26:01;0.20;0.20
18126;DHT22;53956;52.442;13.284;2022-12-18T07:28:29;0.20;0.20
18126;DHT22;53956;52.442;13.284;2022-12-18T07:30:55;0.20;0.20
18126;DHT22;53956;52.442;13.284;2022-12-18T07:33:22;0.20;0.20
18126;DHT22;53956;52.442;13.284;2022-12-18T07:35:49;0.20;0.20
18126;DHT22;53956;52.442;13.284;2022-12-18T07:38:15;0.20;0.20
18126;DHT22;53956;52.442;13.284;2022-12-18T07:40:43;0.20;0.20
18126;DHT22;53956;52.442;13.284;2022-12-18T07:43:10;0.20;0.20
18126;DHT22;53956;52.442;13.284;2022-12-18T07:45:37;0.20;0.20
18126;DHT22;53956;52.442;13.284;2022-12-18T07:48:04;0.20;0.20
18126;DHT22;53956;52.442;13.284;2022-12-18T07:50:31;0.20;0.20
18126;DHT22;53956;52.442;13.284;2022-12-18T07:52:57;0.20;0.20
18126;DHT22;53956;52.442;13.284;2022-12-18T07:55:28;0.20;0.20
18126;DHT22;53956;52.442;13.284;2022-12-18T07:57:56;0.20;0.20
18126;DHT22;53956;52.442;13.284;2022-12-18T08:00:23;0.20;0.20
18126;DHT22;53956;52.442;13.284;2022-12-18T08:02:50;0.20;0.20
18126;DHT22;53956;52.442;13.284;2022-12-18T08:05:17;0.20;0.20
18126;DHT22;53956;52.442;13.284;2022-12-18T08:07:43;0.20;0.20
18126;DHT22;53956;52.442;13.284;2022-12-18T08:10:10;0.20;0.20
18126;DHT22;53956;52.442;13.284;2022-12-18T08:12:36;0.20;0.20
18126;DHT22;53956;52.442;13.284;2022-12-18T08:15:05;0.20;0.20
18126;DHT22;53956;52.442;13.284;2022-12-18T08:17:32;0.20;0.20
18126;DHT22;53956;52.442;13.284;2022-12-18T08:19:59;0.20;0.20
18126;DHT22;53956;52.442;13.284;2022-12-18T08:22:26;0.20;0.20
18126;DHT22;53956;52.442;13.284;2022-12-18T08:24:52;0.20;0.20
18126;DHT22;53956;52.442;13.284;2022-12-18T08:27:20;0.20;0.20
18126;DHT22;53956;52.442;13.284;2022-12-18T08:29:47;0.20;0.20
18126;DHT22;53956;52.442;13.284;2022-12-18T08:32:14;0.20;0.20
18126;DHT22;53956;52.442;13.284;2022-12-18T08:34:41;0.20;0.20
18126;DHT22;53956;52.442;13.284;2022-12-18T08:37:08;0.20;0.20
18126;DHT22;53956;52.442;13.284;2022-12-18T08:39:34;0.20;0.20
18126;DHT22;53956;52.442;13.284;2022-12-18T08:42:01;0.20;0.20
18126;DHT22;53956;52.442;13.284;2022-12-18T08:44:45;0.20;0.20
18126;DHT22;53956;52.442;13.284;2022-12-18T08:47:12;0.20;0.20
18126;DHT22;53956;52.442;13.284;2022-12-18T08:49:40;0.20;0.20
18126;DHT22;53956;52.442;13.284;2022-12-18T08:52:07;0.20;0.20
18126;DHT22;53956;52.442;13.284;2022-12-18T08:54:34;0.20;0.20
18126;DHT22;53956;52.442;13.284;2022-12-18T08:57:01;0.20;0.20
18126;DHT22;53956;52.442;13.284;2022-12-18T08:59:28;0.20;0.20
18126;DHT22;53956;52.442;13.284;2022-12-18T09:01:55;0.20;0.20
18126;DHT22;53956;52.442;13.284;2022-12-18T09:04:21;0.20;0.20
18126;DHT22;53956;52.442;13.284;2022-12-18T09:06:50;0.20;0.20
18126;DHT22;53956;52.442;13.284;2022-12-18T09:09:16;0.20;0.20
18126;DHT22;53956;52.442;13.284;2022-12-18T09:11:43;0.20;0.20
18126;DHT22;53956;52.442;13.284;2022-12-18T09:14:10;0.20;0.20
18126;DHT22;53956;52.442;13.284;2022-12-18T09:16:36;0.20;0.20
18126;DHT22;53956;52.442;13.284;2022-12-18T09:19:04;0.20;0.20
18126;DHT22;53956;52.442;13.284;2022-12-18T09:21:32;0.20;0.20
18126;DHT22;53956;52.442;13.284;2022-12-18T09:24:00;0.20;0.20
18126;DHT22;53956;52.442;13.284;2022-12-18T09:26:27;0.20;0.20
18126;DHT22;53956;52.442;13.284;2022-12-18T09:28:54;0.20;0.20
18126;DHT22;53956;52.442;13.284;2022-12-18T09:31:22;0.20;0.20
18126;DHT22;53956;52.442;13.284;2022-12-18T09:33:49;0.20;0.20
18126;DHT22;53956;52.442;13.284;2022-12-18T09:36:17;0.20;0.20
18126;DHT22;53956;52.442;13.284;2022-12-18T09:38:44;0.20;0.20
18126;DHT22;53956;52.442;13.284;2022-12-18T09:41:32;0.20;0.20
18126;DHT22;53956;52.442;13.284;2022-12-18T09:44:02;0.20;0.20
18126;DHT22;53956;52.442;13.284;2022-12-18T09:46:31;0.20;0.20
18126;DHT22;53956;52.442;13.284;2022-12-18T09:49:01;0.20;0.20
18126;DHT22;53956;52.442;13.284;2022-12-18T09:51:32;0.20;0.20
18126;DHT22;53956;52.442;13.284;2022-12-18T09:54:12;0.20;0.20
18126;DHT22;53956;52.442;13.284;2022-12-18T09:56:42;0.20;0.20
18126;DHT22;53956;52.442;13.284;2022-12-18T09:59:18;0.20;0.20
18126;DHT22;53956;52.442;13.284;2022-12-18T10:01:45;0.20;0.20
18126;DHT22;53956;52.442;13.284;2022-12-18T10:04:12;0.20;0.20
18126;DHT22;53956;52.442;13.284;2022-12-18T10:06:43;0.20;0.20
18126;DHT22;53956;52.442;13.284;2022-12-18T10:09:19;0.20;0.20
18126;DHT22;53956;52.442;13.284;2022-12-18T10:11:55;0.20;0.20
18126;DHT22;53956;52.442;13.284;2022-12-18T10:14:26;0.20;0.20
18126;DHT22;53956;52.442;13.284;2022-12-18T10:17:00;0.20;0.20
18126;DHT22;53956;52.442;13.284;2022-12-18T10:19:39;0.20;0.20
18126;DHT22;53956;52.442;13.284;2022-12-18T10:22:21;0.20;0.20
18126;DHT22;53956;52.442;13.284;2022-12-18T10:24:55;0.20;0.20
18126;DHT22;53956;52.442;13.284;2022-12-18T10:27:26;0.20;0.20
18126;DHT22;53956;52.442;13.284;2022-12-18T10:29:54;0.20;0.20
18126;DHT22;53956;52.442;13.284;2022-12-18T10:32:23;0.20;0.20
18126;DHT22;53956;52.442;13.284;2022-12-18T10:34:53;0.20;0.20
18126;DHT22;53956;52.442;13.284;2022-12-18T10:37:22;0.20;0.20
18126;DHT22;53956;52.442;13.284;2022-12-18T10:40:08;0.20;0.20
18126;DHT22;53956;52.442;13.284;2022-12-18T10:42:38;0.20;0.20
18126;DHT22;53956;52.442;13.284;2022-12-18T10:45:12;0.20;0.20
18126;DHT22;53956;52.442;13.284;2022-12-18T10:47:42;0.20;0.20
18126;DHT22;53956;52.442;13.284;2022-12-18T10:50:19;0.20;0.20
18126;DHT22;53956;52.442;13.284;2022-12-18T10:52:53;0.20;0.20
18126;DHT22;53956;52.442;13.284;2022-12-18T10:55:20;0.20;0.20
18126;DHT22;53956;52.442;13.284;2022-12-18T10:57:49;0.20;0.20
18126;DHT22;53956;52.442;13.284;2022-12-18T11:00:27;0.20;0.20
18126;DHT22;53956;52.442;13.284;2022-12-18T11:02:55;0.20;0.20
18126;DHT22;53956;52.442;13.284;2022-12-18T11:05:27;0.20;0.20
18126;DHT22;53956;52.442;13.284;2022-12-18T11:07:55;0.20;0.20
18126;DHT22;53956;52.442;13.284;2022-12-18T11:10:25;0.20;0.20
18126;DHT22;53956;52.442;13.284;2022-12-18T11:12:54;0.20;0.20
18126;DHT22;53956;52.442;13.284;2022-12-18T11:15:22;0.20;0.20
18126;DHT22;53956;52.442;13.284;2022-12-18T11:17:50;0.20;0.20
18126;DHT22;53956;52.442;13.284;2022-12-18T11:20:31;0.20;0.20
18126;DHT22;53956;52.442;13.284;2022-12-18T11:23:00;0.20;0.20
18126;DHT22;53956;52.442;13.284;2022-12-18T11:25:31;0.20;0.20
18126;DHT22;53956;52.442;13.284;2022-12-18T11:28:01;0.20;0.20
18126;DHT22;53956;52.442;13.284;2022-12-18T11:30:30;0.20;0.20
18126;DHT22;53956;52.442;13.284;2022-12-18T11:33:01;0.20;0.20
18126;DHT22;53956;52.442;13.284;2022-12-18T11:35:42;0.20;0.20
18126;DHT22;53956;52.442;13.284;2022-12-18T11:38:17;0.20;0.20
18126;DHT22;53956;52.442;13.284;2022-12-18T11:40:49;0.20;0.20
18126;DHT22;53956;52.442;13.284;2022-12-18T11:43:23;0.20;0.20
18126;DHT22;53956;52.442;13.284;2022-12-18T11:45:53;0.20;0.20
18126;DHT22;53956;52.442;13.284;2022-12-18T11:48:23;0.20;0.20
18126;DHT22;53956;52.442;13.284;2022-12-18T11:50:53;0.70;97.00
18126;DHT22;53956;52.442;13.284;2022-12-18T11:53:21;-3276.70;99.90
18126;DHT22;53956;52.442;13.284;2022-12-18T11:55:54;0.00;99.90
18126;DHT22;53956;52.442;13.284;2022-12-18T11:58:37;-3276.60;99.90
18126;DHT22;53956;52.442;13.284;2022-12-18T12:01:14;-3276.70;99.90
18126;DHT22;53956;52.442;13.284;2022-12-18T12:04:03;0.00;99.90
18126;DHT22;53956;52.442;13.284;2022-12-18T12:06:40;-3276.60;99.90
18126;DHT22;53956;52.442;13.284;2022-12-18T12:09:19;-3276.60;99.90
18126;DHT22;53956;52.442;13.284;2022-12-18T12:11:55;-3276.40;99.90
18126;DHT22;53956;52.442;13.284;2022-12-18T12:14:41;-3276.40;99.90
18126;DHT22;53956;52.442;13.284;2022-12-18T12:17:14;-3276.30;99.90
18126;DHT22;53956;52.442;13.284;2022-12-18T12:19:48;-3276.50;99.90
18126;DHT22;53956;52.442;13.284;2022-12-18T12:22:23;-3276.10;99.90
18126;DHT22;53956;52.442;13.284;2022-12-18T12:25:01;-3276.20;99.90
18126;DHT22;53956;52.442;13.284;2022-12-18T12:27:38;-3276.30;99.90
18126;DHT22;53956;52.442;13.284;2022-12-18T12:30:16;-3276.50;99.90
18126;DHT22;53956;52.442;13.284;2022-12-18T12:32:59;-3276.50;99.90
18126;DHT22;53956;52.442;13.284;2022-12-18T12:35:35;-3276.30;99.90
18126;DHT22;53956;52.442;13.284;2022-12-18T12:38:10;-3276.30;99.90
18126;DHT22;53956;52.442;13.284;2022-12-18T12:40:42;-3276.50;99.90
18126;DHT22;53956;52.442;13.284;2022-12-18T12:43:24;-3276.40;99.90
18126;DHT22;53956;52.442;13.284;2022-12-18T12:45:55;-3276.50;99.90
18126;DHT22;53956;52.442;13.284;2022-12-18T12:48:31;-3276.20;99.90
18126;DHT22;53956;52.442;13.284;2022-12-18T12:51:01;-3276.50;99.90
18126;DHT22;53956;52.442;13.284;2022-12-18T12:53:35;-3276.30;99.90
18126;DHT22;53956;52.442;13.284;2022-12-18T12:56:03;-3276.30;99.90
18126;DHT22;53956;52.442;13.284;2022-12-18T12:58:36;-3276.20;99.90
18126;DHT22;53956;52.442;13.284;2022-12-18T13:01:12;-3276.40;99.90
18126;DHT22;53956;52.442;13.284;2022-12-18T13:03:46;-3276.50;99.90
18126;DHT22;53956;52.442;13.284;2022-12-18T13:06:23;-3276.60;99.90
18126;DHT22;53956;52.442;13.284;2022-12-18T13:08:56;-3276.70;99.90
18126;DHT22;53956;52.442;13.284;2022-12-18T13:11:38;-3276.60;99.90
18126;DHT22;53956;52.442;13.284;2022-12-18T13:14:28;-3276.70;99.90
18126;DHT22;53956;52.442;13.284;2022-12-18T13:17:16;-3276.50;99.90
18126;DHT22;53956;52.442;13.284;2022-12-18T13:19:43;-3276.40;99.90
18126;DHT22;53956;52.442;13.284;2022-12-18T13:22:21;-3276.70;99.90
18126;DHT22;53956;52.442;13.284;2022-12-18T13:24:48;-3276.60;99.90
18126;DHT22;53956;52.442;13.284;2022-12-18T13:27:45;0.00;99.90
18126;DHT22;53956;52.442;13.284;2022-12-18T13:30:41;0.00;99.90
18126;DHT22;53956;52.442;13.284;2022-12-18T13:36:32;0.00;99.90
18126;DHT22;53956;52.442;13.284;2022-12-18T13:39:11;-3276.70;99.90
18126;DHT22;53956;52.442;13.284;2022-12-18T13:41:38;-3276.50;99.90
18126;DHT22;53956;52.442;13.284;2022-12-18T13:44:11;-3276.40;99.90
18126;DHT22;53956;52.442;13.284;2022-12-18T13:46:43;-3276.40;99.90
18126;DHT22;53956;52.442;13.284;2022-12-18T13:49:21;-3276.50;99.90
18126;DHT22;53956;52.442;13.284;2022-12-18T13:51:52;-3276.40;99.90
18126;DHT22;53956;52.442;13.284;2022-12-18T13:54:23;-3276.40;99.90
18126;DHT22;53956;52.442;13.284;2022-12-18T13:56:50;-3276.20;99.90
18126;DHT22;53956;52.442;13.284;2022-12-18T13:59:19;-3276.50;99.90
18126;DHT22;53956;52.442;13.284;2022-12-18T14:01:50;-3276.70;99.90
18126;DHT22;53956;52.442;13.284;2022-12-18T14:04:23;0.00;99.90
18126;DHT22;53956;52.442;13.284;2022-12-18T14:06:53;-3276.50;99.90
18126;DHT22;53956;52.442;13.284;2022-12-18T14:09:24;-3276.10;99.90
18126;DHT22;53956;52.442;13.284;2022-12-18T14:11:52;-3276.20;99.90
18126;DHT22;53956;52.442;13.284;2022-12-18T14:14:42;-3276.30;99.90
18126;DHT22;53956;52.442;13.284;2022-12-18T14:17:10;-3276.00;99.90
18126;DHT22;53956;52.442;13.284;2022-12-18T14:19:41;-3276.40;99.90
18126;DHT22;53956;52.442;13.284;2022-12-18T14:22:15;-3276.20;99.90
18126;DHT22;53956;52.442;13.284;2022-12-18T14:24:43;-3276.40;99.90
18126;DHT22;53956;52.442;13.284;2022-12-18T14:27:20;-3276.40;99.90
18126;DHT22;53956;52.442;13.284;2022-12-18T14:29:48;-3276.60;99.90
18126;DHT22;53956;52.442;13.284;2022-12-18T14:32:16;-3276.70;99.90
18126;DHT22;53956;52.442;13.284;2022-12-18T14:34:44;-3276.70;99.90
18126;DHT22;53956;52.442;13.284;2022-12-18T14:37:13;-3276.70;99.90
18126;DHT22;53956;52.442;13.284;2022-12-18T14:39:40;0.00;99.90
18126;DHT22;53956;52.442;13.284;2022-12-18T14:42:17;-3276.70;99.90
18126;DHT22;53956;52.442;13.284;2022-12-18T14:44:44;0.10;99.90
18126;DHT22;53956;52.442;13.284;2022-12-18T14:47:14;0.00;99.90
18126;DHT22;53956;52.442;13.284;2022-12-18T14:49:41;0.00;99.90
18126;DHT22;53956;52.442;13.284;2022-12-18T14:52:22;-3276.40;99.90
18126;DHT22;53956;52.442;13.284;2022-12-18T14:54:49;-3276.20;99.90
18126;DHT22;53956;52.442;13.284;2022-12-18T14:57:21;-3276.10;99.90
18126;DHT22;53956;52.442;13.284;2022-12-18T14:59:48;-3276.30;99.90
18126;DHT22;53956;52.442;13.284;2022-12-18T15:02:19;-3276.20;99.90
18126;DHT22;53956;52.442;13.284;2022-12-18T15:04:47;-3276.30;99.90
18126;DHT22;53956;52.442;13.284;2022-12-18T15:07:18;-3276.60;99.90
18126;DHT22;53956;52.442;13.284;2022-12-18T15:10:02;-3276.50;99.90
18126;DHT22;53956;52.442;13.284;2022-12-18T15:12:34;-3276.40;99.90
18126;DHT22;53956;52.442;13.284;2022-12-18T15:15:01;-3276.40;99.90
18126;DHT22;53956;52.442;13.284;2022-12-18T15:17:28;-3276.20;99.90
18126;DHT22;53956;52.442;13.284;2022-12-18T15:20:00;-3276.40;99.90
18126;DHT22;53956;52.442;13.284;2022-12-18T15:22:30;-3276.40;99.90
18126;DHT22;53956;52.442;13.284;2022-12-18T15:24:58;-3276.50;99.90
18126;DHT22;53956;52.442;13.284;2022-12-18T15:27:28;-3276.40;99.90
18126;DHT22;53956;52.442;13.284;2022-12-18T15:30:21;-3276.70;99.90
18126;DHT22;53956;52.442;13.284;2022-12-18T15:32:49;-3276.60;99.90
18126;DHT22;53956;52.442;13.284;2022-12-18T15:35:18;-3276.60;99.90
18126;DHT22;53956;52.442;13.284;2022-12-18T15:37:50;-3276.40;99.90
18126;DHT22;53956;52.442;13.284;2022-12-18T15:40:19;-3276.60;99.90
18126;DHT22;53956;52.442;13.284;2022-12-18T15:42:46;-3276.60;99.90
18126;DHT22;53956;52.442;13.284;2022-12-18T15:45:31;-3276.00;99.90